Pomfret Center, Connecticut
Current Conditions -  °F | °C
As of 3:52 PM on Saturday 20 Dec 2014 (Local Time) from KIJD Reporting Station
Overcast Overcast  
Wind Chill: 29°   Ceiling: 3300
Heat Index: 35°   Visibility: 10mi
Dew Point: 23°   Wind: 7mph
Humidity: 61%   Direction: 10°N
Pressure: 30.25"   Gusts: NA
Location:  41.88°N, 72.01°W
Report Text: KIJD 202052Z AUTO 01006KT 10SM OVC033 02/M05 A3025 RMK AO2 SLP244 T00171050 55003
Loading
Personal Weather Stations






























Interactive Weather Map New forecast layout! Learn more

10-Day Weather Forecast

Advertisements
Track Severe Weather on mobile